createdAt,value
2022-10-26T00:00:41.760Z,1.35
2022-10-26T00:05:44.176Z,1.27
2022-10-26T00:10:46.277Z,0.70
2022-10-26T00:15:48.279Z,0.90
2022-10-26T00:20:50.597Z,0.98
2022-10-26T00:25:59.129Z,0.60
2022-10-26T00:31:06.825Z,0.98
2022-10-26T00:36:10.302Z,0.93
2022-10-26T00:41:16.598Z,0.70
2022-10-26T00:46:26.689Z,1.30
2022-10-26T00:51:35.787Z,0.63
2022-10-26T00:56:38.003Z,0.80
2022-10-26T01:01:43.526Z,0.80
2022-10-26T01:06:46.887Z,1.23
2022-10-26T01:11:48.830Z,0.85
2022-10-26T01:16:50.734Z,0.80
2022-10-26T01:22:02.747Z,0.77
2022-10-26T01:27:25.411Z,0.57
2022-10-26T01:32:56.380Z,0.85
2022-10-26T01:38:08.799Z,0.73
2022-10-26T01:43:14.560Z,0.65
2022-10-26T01:48:19.537Z,1.08
2022-10-26T01:53:21.541Z,0.43
2022-10-26T01:58:37.451Z,0.55
2022-10-26T02:04:06.761Z,0.55
2022-10-26T02:09:12.045Z,0.40
2022-10-26T02:14:18.687Z,0.50
2022-10-26T02:19:34.024Z,0.75
2022-10-26T02:24:37.078Z,0.80
2022-10-26T02:29:39.965Z,0.70
2022-10-26T02:34:46.273Z,0.60
2022-10-26T02:39:51.673Z,0.40
2022-10-26T02:45:00.518Z,0.55
2022-10-26T02:50:02.787Z,0.68
2022-10-26T02:55:10.350Z,0.68
2022-10-26T03:00:15.656Z,0.90
2022-10-26T03:05:23.501Z,0.45
2022-10-26T03:10:25.972Z,0.60
2022-10-26T03:15:27.869Z,0.40
2022-10-26T03:20:29.804Z,0.73
2022-10-26T03:25:31.739Z,0.60
2022-10-26T03:30:33.803Z,0.40
2022-10-26T03:35:35.617Z,0.52
2022-10-26T03:40:37.376Z,0.50
2022-10-26T03:45:39.303Z,0.50
2022-10-26T03:50:41.413Z,0.50
2022-10-26T03:55:46.353Z,0.40
2022-10-26T04:00:48.575Z,0.77
2022-10-26T04:05:50.440Z,0.60
2022-10-26T04:10:52.341Z,0.40
2022-10-26T04:15:54.472Z,0.50
2022-10-26T04:20:56.289Z,0.57
2022-10-26T04:25:58.092Z,0.30
2022-10-26T04:30:59.889Z,0.65
2022-10-26T04:36:01.706Z,0.30
2022-10-26T04:41:03.959Z,0.63
2022-10-26T04:46:05.850Z,0.47
2022-10-26T04:51:07.668Z,0.50
2022-10-26T04:56:10.068Z,0.70
2022-10-26T05:01:12.607Z,0.30
2022-10-26T05:06:14.365Z,0.20
2022-10-26T05:11:16.252Z,0.40
2022-10-26T05:16:18.411Z,0.60
2022-10-26T05:21:20.182Z,0.60
2022-10-26T05:26:23.682Z,0.40
2022-10-26T05:31:25.677Z,0.50
2022-10-26T05:36:27.681Z,0.75
2022-10-26T05:41:29.523Z,0.50
2022-10-26T05:46:31.378Z,0.40
2022-10-26T05:51:35.341Z,0.40
2022-10-26T05:56:39.721Z,0.40
2022-10-26T06:01:52.312Z,0.30
2022-10-26T06:06:55.483Z,0.13
2022-10-26T06:11:57.590Z,0.50
2022-10-26T06:17:29.077Z,0.32
2022-10-26T06:23:00.701Z,0.35
2022-10-26T06:28:21.769Z,1.33
2022-10-26T06:33:29.516Z,0.73
2022-10-26T06:38:34.768Z,0.93
2022-10-26T06:43:36.899Z,0.88
2022-10-26T06:48:52.127Z,1.67
2022-10-26T06:54:03.097Z,0.70
2022-10-26T06:59:14.215Z,0.60
2022-10-26T07:04:15.966Z,1.67
2022-10-26T07:09:17.563Z,1.55
2022-10-26T07:14:19.310Z,1.15
2022-10-26T07:19:21.041Z,0.70
2022-10-26T07:24:23.789Z,0.90
2022-10-26T07:29:27.395Z,1.33
2022-10-26T07:34:29.328Z,1.20
2022-10-26T07:39:33.050Z,1.85
2022-10-26T07:44:34.876Z,1.00
2022-10-26T07:49:36.862Z,1.55
2022-10-26T07:54:38.727Z,1.65
2022-10-26T07:59:40.463Z,1.20
2022-10-26T08:04:42.235Z,1.65
2022-10-26T08:09:44.021Z,1.35
2022-10-26T08:14:46.536Z,0.75
2022-10-26T08:19:49.111Z,0.80
2022-10-26T08:24:50.824Z,0.90
2022-10-26T08:29:52.683Z,0.93
2022-10-26T08:34:54.601Z,0.90
2022-10-26T08:39:57.532Z,0.88
2022-10-26T08:45:07.925Z,1.20
2022-10-26T08:50:18.922Z,1.67
2022-10-26T08:55:33.480Z,1.20
2022-10-26T09:00:35.639Z,0.50
2022-10-26T09:05:44.450Z,0.80
2022-10-26T09:11:07.487Z,0.80
2022-10-26T09:16:31.143Z,1.00
2022-10-26T09:21:48.734Z,0.70
2022-10-26T09:26:55.120Z,0.65
2022-10-26T09:32:00.370Z,0.85
2022-10-26T09:37:15.476Z,1.02
2022-10-26T09:42:24.961Z,0.80
2022-10-26T09:47:38.102Z,1.02
2022-10-26T09:52:39.880Z,0.60
2022-10-26T09:57:47.832Z,1.02
2022-10-26T10:02:58.173Z,0.98
2022-10-26T10:08:18.373Z,0.75
2022-10-26T10:13:23.875Z,0.82
2022-10-26T10:18:25.979Z,0.60
2022-10-26T10:23:31.410Z,0.70
2022-10-26T10:28:34.224Z,0.40
2022-10-26T10:33:42.905Z,0.40
2022-10-26T10:38:46.804Z,0.60
2022-10-26T10:44:05.839Z,0.60
2022-10-26T10:49:20.504Z,1.08
2022-10-26T10:54:34.055Z,0.90
2022-10-26T10:59:46.490Z,1.05
2022-10-26T11:04:53.991Z,0.95
2022-10-26T11:10:00.713Z,0.80
2022-10-26T11:15:17.099Z,0.50
2022-10-26T11:20:22.895Z,0.57
2022-10-26T11:25:31.276Z,0.45
2022-10-26T11:30:36.843Z,0.60
2022-10-26T11:35:47.441Z,0.55
2022-10-26T11:41:23.328Z,0.70
2022-10-26T11:47:12.447Z,0.47
2022-10-26T11:52:20.664Z,0.40
2022-10-26T11:57:29.174Z,0.47
2022-10-26T12:02:36.323Z,0.80
2022-10-26T12:07:40.638Z,0.50
2022-10-26T12:12:50.223Z,0.73
2022-10-26T12:17:59.834Z,0.57
2022-10-26T12:23:05.272Z,0.45
2022-10-26T12:28:40.746Z,0.45
2022-10-26T12:33:51.935Z,0.50
2022-10-26T12:38:57.990Z,1.00
2022-10-26T12:44:24.164Z,0.20
2022-10-26T12:50:04.790Z,0.50
2022-10-26T12:55:12.993Z,0.43
2022-10-26T13:00:23.810Z,0.35
2022-10-26T13:05:50.426Z,0.40
2022-10-26T13:11:05.796Z,0.50
2022-10-26T13:16:11.856Z,0.45
2022-10-26T13:21:16.760Z,0.43
2022-10-26T13:26:20.485Z,0.40
2022-10-26T13:31:31.699Z,0.45
2022-10-26T13:36:39.329Z,0.43
2022-10-26T13:41:45.007Z,0.50
2022-10-26T13:46:53.456Z,0.52
2022-10-26T13:51:56.454Z,0.50
2022-10-26T13:57:13.718Z,0.40
2022-10-26T14:02:19.875Z,0.38
2022-10-26T14:07:26.080Z,0.50
2022-10-26T14:12:31.368Z,0.57
2022-10-26T14:17:33.584Z,0.30
2022-10-26T14:22:35.581Z,0.60
2022-10-26T14:27:39.695Z,0.30
2022-10-26T14:32:41.598Z,0.30
2022-10-26T14:38:12.242Z,0.40
2022-10-26T14:43:19.288Z,0.32
2022-10-26T14:48:35.548Z,0.30
2022-10-26T14:53:40.969Z,0.30
2022-10-26T14:58:43.130Z,0.30
2022-10-26T15:03:45.694Z,0.30
2022-10-26T15:09:03.381Z,0.50
2022-10-26T15:14:12.670Z,0.30
2022-10-26T15:19:24.019Z,0.30
2022-10-26T15:24:39.165Z,0.50
2022-10-26T15:29:42.971Z,0.30
2022-10-26T15:34:50.046Z,0.22
2022-10-26T15:39:51.978Z,0.60
2022-10-26T15:44:53.758Z,0.40
2022-10-26T15:49:55.778Z,0.30
2022-10-26T15:54:57.635Z,0.32
2022-10-26T15:59:59.732Z,0.22
2022-10-26T16:05:01.766Z,0.17
2022-10-26T16:10:03.804Z,0.20
2022-10-26T16:15:06.432Z,0.55
2022-10-26T16:20:19.880Z,0.25
2022-10-26T16:25:26.044Z,0.70
2022-10-26T16:30:30.791Z,0.30
2022-10-26T16:35:32.767Z,0.35
2022-10-26T16:40:34.509Z,0.40
2022-10-26T16:45:39.850Z,0.43
2022-10-26T16:50:41.703Z,0.40
2022-10-26T16:55:44.461Z,0.47
2022-10-26T17:00:46.243Z,0.32
2022-10-26T17:05:48.003Z,0.40
2022-10-26T17:10:49.727Z,0.30
2022-10-26T17:15:51.517Z,0.30
2022-10-26T17:20:53.340Z,0.50
2022-10-26T17:25:55.221Z,0.25
2022-10-26T17:31:11.726Z,0.50
2022-10-26T17:36:16.847Z,0.57
2022-10-26T17:41:20.140Z,0.40
2022-10-26T17:46:24.583Z,0.50
2022-10-26T17:51:27.816Z,0.30
2022-10-26T17:56:32.445Z,0.60
2022-10-26T18:01:34.323Z,0.90
2022-10-26T18:06:36.355Z,0.60
2022-10-26T18:11:38.157Z,0.80
2022-10-26T18:16:40.194Z,0.75
2022-10-26T18:21:41.966Z,0.80
2022-10-26T18:26:43.744Z,1.60
2022-10-26T18:31:46.217Z,1.20
2022-10-26T18:36:47.889Z,0.75
2022-10-26T18:41:49.672Z,1.67
2022-10-26T18:46:52.443Z,0.88
2022-10-26T18:51:54.444Z,1.10
2022-10-26T18:56:56.717Z,1.25
2022-10-26T19:01:58.579Z,0.88
2022-10-26T19:07:01.825Z,1.10
2022-10-26T19:12:04.549Z,0.93
2022-10-26T19:17:06.382Z,0.80
2022-10-26T19:22:08.118Z,1.00
2022-10-26T19:27:10.018Z,0.70
2022-10-26T19:32:12.666Z,1.02
2022-10-26T19:37:14.551Z,0.60
2022-10-26T19:42:16.586Z,0.68
2022-10-26T19:47:18.355Z,0.90
2022-10-26T19:52:20.454Z,0.65
2022-10-26T19:57:25.446Z,0.73
2022-10-26T20:02:28.076Z,0.70
2022-10-26T20:07:29.976Z,0.88
2022-10-26T20:12:31.974Z,0.70
2022-10-26T20:17:34.882Z,0.63
2022-10-26T20:22:36.785Z,0.80
2022-10-26T20:27:41.874Z,0.63
2022-10-26T20:32:43.649Z,0.80
2022-10-26T20:37:45.710Z,0.70
2022-10-26T20:48:12.150Z,0.57
2022-10-26T20:53:26.051Z,0.63
2022-10-26T20:58:56.606Z,0.60
2022-10-26T21:04:00.718Z,0.55
2022-10-26T21:09:02.614Z,0.45
2022-10-26T21:14:05.574Z,0.55
2022-10-26T21:19:08.708Z,0.50
2022-10-26T21:24:10.470Z,0.90
2022-10-26T21:29:12.492Z,0.55
2022-10-26T21:34:14.529Z,0.45
2022-10-26T21:39:16.281Z,0.70
2022-10-26T21:44:40.575Z,0.73
2022-10-26T21:54:43.429Z,0.52
2022-10-26T21:59:45.245Z,0.50
2022-10-26T22:04:46.983Z,0.60
2022-10-26T22:10:07.526Z,0.43
2022-10-26T22:15:10.952Z,0.40
2022-10-26T22:20:12.881Z,0.43
2022-10-26T22:25:14.809Z,0.80
2022-10-26T22:30:16.682Z,0.52
2022-10-26T22:35:28.942Z,0.50
2022-10-26T22:40:31.616Z,0.50
2022-10-26T22:45:33.605Z,0.60
2022-10-26T22:50:38.025Z,0.60
2022-10-26T22:55:42.667Z,0.40
2022-10-26T23:00:44.582Z,0.77
2022-10-26T23:05:49.620Z,0.60
2022-10-26T23:10:51.848Z,0.40
2022-10-26T23:15:53.851Z,0.60
2022-10-26T23:20:55.864Z,0.38
2022-10-26T23:26:10.133Z,0.30
2022-10-26T23:31:16.578Z,0.30
2022-10-26T23:36:18.999Z,0.40
2022-10-26T23:41:21.019Z,0.30
2022-10-26T23:46:22.881Z,0.50
2022-10-26T23:51:24.740Z,0.40
2022-10-26T23:56:26.785Z,0.40
